createdAt,value
2023-04-03T00:01:32.000Z,0
2023-04-03T00:02:49.000Z,0
2023-04-03T00:04:05.200Z,0
2023-04-03T00:05:21.000Z,0
2023-04-03T00:06:19.587Z,0
2023-04-03T00:07:53.000Z,0
2023-04-03T00:09:09.000Z,0
2023-04-03T00:10:08.168Z,0
2023-04-03T00:11:24.361Z,0
2023-04-03T00:12:40.555Z,0
2023-04-03T00:14:13.000Z,0
2023-04-03T00:15:29.959Z,0
2023-04-03T00:16:46.000Z,0
2023-04-03T00:18:02.347Z,0
2023-04-03T00:19:18.558Z,0
2023-04-03T00:20:34.000Z,0
2023-04-03T00:21:32.926Z,0
2023-04-03T00:22:49.120Z,0
2023-04-03T00:24:23.000Z,0
2023-04-03T00:25:39.516Z,0
2023-04-03T00:26:55.000Z,0
2023-04-03T00:28:11.000Z,0
2023-04-03T00:29:10.087Z,0
2023-04-03T00:31:07.000Z,0
2023-04-03T00:31:59.509Z,0
2023-04-03T00:33:15.000Z,0
2023-04-03T00:34:31.000Z,0
2023-04-03T00:35:30.071Z,0
2023-04-03T00:37:04.000Z,0
2023-04-03T00:38:02.459Z,0
2023-04-03T00:39:36.659Z,0
2023-04-03T00:40:52.856Z,0
2023-04-03T00:42:33.000Z,0
2023-04-03T00:43:07.233Z,0
2023-04-03T00:44:41.000Z,0
2023-04-03T00:45:57.000Z,0
2023-04-03T00:47:13.825Z,0
2023-04-03T00:48:11.024Z,0
2023-04-03T00:49:45.000Z,0
2023-04-03T00:50:43.411Z,0
2023-04-03T00:51:59.604Z,0
2023-04-03T00:53:15.798Z,0
2023-04-03T00:54:49.991Z,0
2023-04-03T00:55:48.185Z,0
2023-04-03T00:57:22.392Z,0
2023-04-03T00:58:38.000Z,0
2023-04-03T01:00:19.000Z,0
2023-04-03T01:00:52.959Z,0
2023-04-03T01:02:27.152Z,0
2023-04-03T01:03:25.345Z,0
2023-04-03T01:04:59.539Z,0
2023-04-03T01:05:57.732Z,0
2023-04-03T01:07:13.926Z,0
2023-04-03T01:08:29.135Z,0
2023-04-03T01:10:03.336Z,0
2023-04-03T01:11:19.525Z,0
2023-04-03T01:12:35.000Z,0
2023-04-03T01:13:33.912Z,0
2023-04-03T01:15:32.000Z,0
2023-04-03T01:16:06.299Z,0
2023-04-03T01:17:40.492Z,0
2023-04-03T01:18:56.687Z,0
2023-04-03T01:20:12.885Z,0
2023-04-03T01:21:11.074Z,0
2023-04-03T01:23:09.000Z,0
2023-04-03T01:24:01.000Z,0
2023-04-03T01:25:17.000Z,0
2023-04-03T01:26:15.849Z,0
2023-04-03T01:27:50.000Z,0
2023-04-03T01:28:48.236Z,0
2023-04-03T01:30:21.449Z,0
2023-04-03T01:31:19.640Z,0
2023-04-03T01:32:53.000Z,0
2023-04-03T01:34:10.034Z,0
2023-04-03T01:35:26.224Z,0
2023-04-03T01:36:42.000Z,0
2023-04-03T01:37:58.607Z,0
2023-04-03T01:39:14.816Z,0
2023-04-03T01:40:31.000Z,0
2023-04-03T01:41:29.188Z,0
2023-04-03T01:43:03.393Z,0
2023-04-03T01:44:19.579Z,0
2023-04-03T01:46:00.000Z,0
2023-04-03T01:47:15.000Z,0
2023-04-03T01:48:07.000Z,0
2023-04-03T01:49:23.000Z,0
2023-04-03T01:50:39.557Z,0
2023-04-03T01:51:55.000Z,0
2023-04-03T01:53:11.000Z,0
2023-04-03T01:54:10.137Z,0
2023-04-03T01:55:44.332Z,0
2023-04-03T01:56:42.524Z,0
2023-04-03T01:58:16.722Z,0
2023-04-03T01:59:14.911Z,0
2023-04-03T02:00:49.000Z,0
2023-04-03T02:02:05.298Z,0
2023-04-03T02:03:21.492Z,0
2023-04-03T02:04:19.686Z,0
2023-04-03T02:05:34.896Z,0
2023-04-03T02:07:09.090Z,0
2023-04-03T02:08:25.000Z,0
2023-04-03T02:09:41.483Z,0
2023-04-03T02:10:57.000Z,0
2023-04-03T02:12:13.864Z,0
2023-04-03T02:13:12.056Z,0
2023-04-03T02:14:46.000Z,0
2023-04-03T02:16:26.000Z,0
2023-04-03T02:17:18.000Z,0
2023-04-03T02:18:34.830Z,0
2023-04-03T02:19:33.024Z,0
2023-04-03T02:21:07.237Z,0
2023-04-03T02:22:23.548Z,0
2023-04-03T02:23:39.000Z,0
2023-04-03T02:24:37.920Z,0
2023-04-03T02:26:12.114Z,0
2023-04-03T02:27:28.000Z,0
2023-04-03T02:28:44.501Z,0
2023-04-03T02:29:42.694Z,0
2023-04-03T02:31:16.000Z,0
2023-04-03T02:32:15.081Z,0
2023-04-03T02:33:49.000Z,0
2023-04-03T02:35:05.480Z,0
2023-04-03T02:36:03.663Z,0
2023-04-03T02:37:37.859Z,0
2023-04-03T02:38:35.066Z,0
2023-04-03T02:40:09.000Z,0
2023-04-03T02:41:25.452Z,0
2023-04-03T02:42:23.646Z,0
2023-04-03T02:43:39.839Z,0
2023-04-03T02:44:56.033Z,0
2023-04-03T02:46:30.229Z,0
2023-04-03T02:47:28.420Z,0
2023-04-03T02:49:02.000Z,0
2023-04-03T02:50:00.807Z,0
2023-04-03T02:51:17.000Z,0
2023-04-03T02:52:51.000Z,0
2023-04-03T02:54:07.000Z,0
2023-04-03T02:55:05.580Z,0
2023-04-03T02:56:39.774Z,0
2023-04-03T02:57:37.967Z,0
2023-04-03T02:59:11.000Z,0
2023-04-03T03:00:09.370Z,0
2023-04-03T03:01:43.564Z,0
2023-04-03T03:02:41.757Z,0
2023-04-03T03:04:15.000Z,0
2023-04-03T03:05:32.000Z,0
2023-04-03T03:06:48.357Z,0
2023-04-03T03:07:46.531Z,0
2023-04-03T03:09:20.000Z,0
2023-04-03T03:10:18.919Z,0
2023-04-03T03:11:53.125Z,0
2023-04-03T03:13:09.326Z,0
2023-04-03T03:14:25.499Z,0
2023-04-03T03:15:40.730Z,0
2023-04-03T03:16:38.903Z,0
2023-04-03T03:18:13.000Z,0
2023-04-03T03:19:29.000Z,0
2023-04-03T03:20:45.492Z,0
2023-04-03T03:21:43.677Z,0
2023-04-03T03:22:59.871Z,0
2023-04-03T03:24:16.064Z,0
2023-04-03T03:25:32.258Z,0
2023-04-03T03:27:06.000Z,0
2023-04-03T03:28:04.645Z,0
2023-04-03T03:29:20.838Z,0
2023-04-03T03:30:55.000Z,0
2023-04-03T03:32:11.234Z,0
2023-04-03T03:33:08.434Z,0
2023-04-03T03:34:42.629Z,0
2023-04-03T03:35:40.823Z,0
2023-04-03T03:37:15.032Z,0
2023-04-03T03:38:31.224Z,0
2023-04-03T03:39:29.403Z,0
2023-04-03T03:41:03.000Z,0
2023-04-03T03:42:19.000Z,0
2023-04-03T03:43:35.000Z,0
2023-04-03T03:44:52.177Z,0
2023-04-03T03:45:50.371Z,0
2023-04-03T03:47:24.000Z,0
2023-04-03T03:48:40.766Z,0
2023-04-03T03:49:55.000Z,0
2023-04-03T03:50:54.161Z,0
2023-04-03T03:52:10.354Z,0
2023-04-03T03:53:26.548Z,0
2023-04-03T03:54:42.742Z,0
2023-04-03T03:56:16.000Z,0
2023-04-03T03:57:33.128Z,0
2023-04-03T03:58:49.334Z,0
2023-04-03T04:00:04.551Z,0
2023-04-03T04:01:02.731Z,0
2023-04-03T04:02:36.000Z,0
2023-04-03T04:03:35.118Z,4
2023-04-03T04:05:09.000Z,4
2023-04-03T04:06:07.506Z,0
2023-04-03T04:07:41.705Z,4
2023-04-03T04:08:57.893Z,4
2023-04-03T04:10:38.000Z,4
2023-04-03T04:11:12.280Z,0
2023-04-03T04:12:46.474Z,4
2023-04-03T04:13:44.667Z,8
2023-04-03T04:15:18.868Z,8
2023-04-03T04:16:16.071Z,8
2023-04-03T04:17:32.266Z,12
2023-04-03T04:18:48.459Z,12
2023-04-03T04:20:22.000Z,16
2023-04-03T04:21:38.000Z,16
2023-04-03T04:22:55.049Z,20
2023-04-03T04:24:11.242Z,24
2023-04-03T04:25:51.000Z,32
2023-04-03T04:26:25.620Z,40
2023-04-03T04:27:59.814Z,48
2023-04-03T04:29:16.011Z,56
2023-04-03T04:30:14.201Z,68
2023-04-03T04:31:48.000Z,80
2023-04-03T04:32:46.588Z,96
2023-04-03T04:34:20.000Z,112
2023-04-03T04:35:36.000Z,132
2023-04-03T04:36:53.000Z,152
2023-04-03T04:38:09.362Z,176
2023-04-03T04:39:25.560Z,200
2023-04-03T04:40:40.000Z,228
2023-04-03T04:41:38.958Z,260
2023-04-03T04:43:13.000Z,296
2023-04-03T04:44:29.350Z,328
2023-04-03T04:45:27.539Z,368
2023-04-03T04:47:01.000Z,408
2023-04-03T04:47:59.927Z,452
2023-04-03T04:49:16.120Z,496
2023-04-03T04:50:50.000Z,544
2023-04-03T04:52:06.525Z,592
2023-04-03T04:53:22.720Z,644
2023-04-03T04:54:20.894Z,700
2023-04-03T04:55:55.105Z,752
2023-04-03T04:57:11.000Z,808
2023-04-03T04:58:26.000Z,864
2023-04-03T04:59:42.000Z,924
2023-04-03T05:00:58.896Z,980
2023-04-03T05:01:57.072Z,1044
2023-04-03T05:03:13.265Z,1104
2023-04-03T05:04:47.466Z,1168
2023-04-03T05:06:03.000Z,1228
2023-04-03T05:07:01.846Z,1292
2023-04-03T05:08:18.039Z,1352
2023-04-03T05:10:16.000Z,1420
2023-04-03T05:11:08.434Z,1488
2023-04-03T05:12:24.620Z,1556
2023-04-03T05:13:40.813Z,1624
2023-04-03T05:14:39.007Z,1692
2023-04-03T05:16:13.219Z,1756
2023-04-03T05:17:11.394Z,1824
2023-04-03T05:18:26.604Z,1884
2023-04-03T05:20:00.000Z,1944
2023-04-03T05:21:16.000Z,2004
2023-04-03T05:22:33.000Z,2068
2023-04-03T05:23:49.400Z,2128
2023-04-03T05:25:05.000Z,2184
2023-04-03T05:26:03.765Z,2240
2023-04-03T05:27:37.966Z,2292
2023-04-03T05:28:54.000Z,2352
2023-04-03T05:29:52.346Z,2412
2023-04-03T05:31:26.000Z,2468
2023-04-03T05:32:24.734Z,2520
2023-04-03T05:33:58.000Z,2568
2023-04-03T05:34:57.121Z,2612
2023-04-03T05:36:30.000Z,2664
2023-04-03T05:37:46.000Z,2716
2023-04-03T05:39:02.000Z,2760
2023-04-03T05:40:18.922Z,2804
2023-04-03T05:41:17.104Z,2852
2023-04-03T05:42:51.302Z,2896
2023-04-03T05:44:07.000Z,2940
2023-04-03T05:45:05.685Z,2980
2023-04-03T05:46:39.000Z,3028
2023-04-03T05:47:38.072Z,3084
2023-04-03T05:49:12.000Z,3136
2023-04-03T05:50:28.000Z,3288
2023-04-03T05:51:44.000Z,3700
2023-04-03T05:52:42.846Z,4080
2023-04-03T05:54:16.056Z,3880
2023-04-03T05:55:32.254Z,3628
2023-04-03T05:56:48.000Z,3476
2023-04-03T05:57:46.636Z,3552
2023-04-03T05:59:20.829Z,3484
2023-04-03T06:00:37.030Z,3408
2023-04-03T06:01:53.232Z,3416
2023-04-03T06:03:09.000Z,3452
2023-04-03T06:04:07.604Z,3500
2023-04-03T06:05:23.798Z,3544
2023-04-03T06:06:58.000Z,3592
2023-04-03T06:07:56.185Z,3652
2023-04-03T06:09:30.000Z,3692
2023-04-03T06:10:46.000Z,3728
2023-04-03T06:12:02.766Z,3772
2023-04-03T06:13:00.960Z,3820
2023-04-03T06:14:34.171Z,3856
2023-04-03T06:15:50.000Z,3900
2023-04-03T06:17:06.561Z,3936
2023-04-03T06:18:22.757Z,3968
2023-04-03T06:19:20.946Z,4020
2023-04-03T06:20:37.139Z,4060
2023-04-03T06:22:11.000Z,4096
2023-04-03T06:23:09.527Z,4132
2023-04-03T06:24:25.720Z,4168
2023-04-03T06:25:59.921Z,4200
2023-04-03T06:27:16.000Z,4232
2023-04-03T06:28:32.000Z,4256
2023-04-03T06:29:48.514Z,4296
2023-04-03T06:30:45.705Z,4324
2023-04-03T06:32:19.917Z,4344
2023-04-03T06:33:18.094Z,4372
2023-04-03T06:34:52.293Z,4400
2023-04-03T06:36:08.492Z,4432
2023-04-03T06:37:24.000Z,4460
2023-04-03T06:38:22.870Z,4492
2023-04-03T06:39:57.000Z,4524
2023-04-03T06:41:13.000Z,4544
2023-04-03T06:42:29.464Z,4572
2023-04-03T06:43:27.645Z,4604
2023-04-03T06:45:01.838Z,4632
2023-04-03T06:46:42.000Z,4648
2023-04-03T06:47:16.227Z,4680
2023-04-03T06:48:31.437Z,4708
2023-04-03T06:50:05.636Z,4728
2023-04-03T06:51:03.824Z,4748
2023-04-03T06:52:38.000Z,4772
2023-04-03T06:53:54.000Z,4792
2023-04-03T06:55:10.422Z,4816
2023-04-03T06:56:08.603Z,4828
2023-04-03T06:57:42.000Z,4864
2023-04-03T06:58:40.995Z,4748
2023-04-03T07:00:15.000Z,4824
2023-04-03T07:01:13.385Z,4892
2023-04-03T07:02:47.603Z,4920
2023-04-03T07:04:03.782Z,4792
2023-04-03T07:05:19.004Z,4912
2023-04-03T07:06:35.000Z,4980
2023-04-03T07:07:51.000Z,5020
2023-04-03T07:09:07.000Z,5048
2023-04-03T07:10:23.000Z,5108
2023-04-03T07:11:21.963Z,5180
2023-04-03T07:13:20.000Z,5296
2023-04-03T07:13:54.354Z,5252
2023-04-03T07:15:28.000Z,5460
2023-04-03T07:16:26.745Z,5544
2023-04-03T07:18:00.000Z,5608
2023-04-03T07:19:17.000Z,5164
2023-04-03T07:20:33.335Z,5256
2023-04-03T07:21:31.527Z,4768
2023-04-03T07:23:04.000Z,4520
2023-04-03T07:24:20.939Z,4236
2023-04-03T07:25:37.000Z,4852
2023-04-03T07:26:35.323Z,5828
2023-04-03T07:28:33.000Z,4452
2023-04-03T07:29:07.713Z,4648
2023-04-03T07:30:41.000Z,4656
2023-04-03T07:31:58.000Z,5612
2023-04-03T07:33:14.317Z,4728
2023-04-03T07:34:12.493Z,4872
2023-04-03T07:35:46.704Z,4916
2023-04-03T07:37:02.897Z,6160
2023-04-03T07:38:19.000Z,5740
2023-04-03T07:39:35.278Z,6308
2023-04-03T07:40:50.505Z,5800
2023-04-03T07:42:06.686Z,4816
2023-04-03T07:43:22.000Z,6108
2023-04-03T07:44:39.000Z,5796
2023-04-03T07:45:55.000Z,5912
2023-04-03T07:47:11.466Z,6176
2023-04-03T07:48:27.654Z,6448
2023-04-03T07:49:43.875Z,5088
2023-04-03T07:51:24.000Z,4636
2023-04-03T07:52:16.260Z,5440
2023-04-03T07:53:32.000Z,6432
2023-04-03T07:54:48.642Z,6448
2023-04-03T07:56:04.000Z,4832
2023-04-03T07:57:21.000Z,4628
2023-04-03T07:58:19.215Z,5060
2023-04-03T07:59:35.410Z,4540
2023-04-03T08:01:09.624Z,4292
2023-04-03T08:02:06.816Z,4116
2023-04-03T08:03:41.033Z,4140
2023-04-03T08:04:39.206Z,4128
2023-04-03T08:06:13.401Z,4132
2023-04-03T08:07:29.596Z,4112
2023-04-03T08:08:45.791Z,4176
2023-04-03T08:10:01.000Z,4172
2023-04-03T08:11:18.202Z,4144
2023-04-03T08:12:34.000Z,4072
2023-04-03T08:13:50.000Z,4040
2023-04-03T08:15:06.000Z,4088
2023-04-03T08:16:22.000Z,4316
2023-04-03T08:17:39.171Z,4308
2023-04-03T08:18:54.395Z,4080
2023-04-03T08:20:10.000Z,4068
2023-04-03T08:21:26.784Z,4124
2023-04-03T08:22:42.000Z,4136
2023-04-03T08:23:59.153Z,4044
2023-04-03T08:24:57.348Z,4040
2023-04-03T08:26:13.543Z,4132
2023-04-03T08:27:47.000Z,4220
2023-04-03T08:29:03.000Z,4248
2023-04-03T08:30:02.128Z,4196
2023-04-03T08:31:36.000Z,4216
2023-04-03T08:32:52.000Z,4252
2023-04-03T08:34:08.000Z,4304
2023-04-03T08:35:24.908Z,4424
2023-04-03T08:36:41.117Z,4464
2023-04-03T08:37:39.420Z,4568
2023-04-03T08:39:13.000Z,4380
2023-04-03T08:40:11.810Z,4404
2023-04-03T08:41:46.000Z,4752
2023-04-03T08:42:44.200Z,4644
2023-04-03T08:44:18.410Z,4864
2023-04-03T08:45:34.600Z,4688
2023-04-03T08:46:50.000Z,6520
2023-04-03T08:48:06.000Z,5188
2023-04-03T08:49:23.000Z,4976
2023-04-03T08:50:21.370Z,4432
2023-04-03T08:51:55.000Z,4424
2023-04-03T08:52:53.760Z,4468
2023-04-03T08:54:26.000Z,4488
2023-04-03T08:55:25.166Z,4652
2023-04-03T08:56:59.383Z,5192
2023-04-03T08:57:57.556Z,5984
2023-04-03T08:59:31.756Z,6704
2023-04-03T09:00:47.000Z,6628
2023-04-03T09:02:04.000Z,4772
2023-04-03T09:03:20.000Z,4748
2023-04-03T09:04:36.000Z,5128
2023-04-03T09:05:34.727Z,6732
2023-04-03T09:07:08.000Z,6100
2023-04-03T09:08:07.117Z,6812
2023-04-03T09:09:41.000Z,6072
2023-04-03T09:10:39.508Z,6448
2023-04-03T09:12:13.726Z,5028
2023-04-03T09:13:28.914Z,4344
2023-04-03T09:14:45.000Z,4324
2023-04-03T09:16:01.000Z,4620
2023-04-03T09:17:17.500Z,4348
2023-04-03T09:18:33.718Z,4280
2023-04-03T09:19:49.898Z,4320
2023-04-03T09:21:06.097Z,4496
2023-04-03T09:22:22.288Z,4740
2023-04-03T09:23:20.476Z,4692
2023-04-03T09:24:54.671Z,4688
2023-04-03T09:26:10.000Z,4688
2023-04-03T09:27:27.000Z,4928
2023-04-03T09:28:43.274Z,5236
2023-04-03T09:29:58.478Z,5700
2023-04-03T09:30:56.663Z,5156
2023-04-03T09:32:30.000Z,6256
2023-04-03T09:33:47.000Z,5996
2023-04-03T09:35:03.262Z,4952
2023-04-03T09:36:19.000Z,4996
2023-04-03T09:37:35.000Z,5068
2023-04-03T09:38:51.833Z,5028
2023-04-03T09:40:08.000Z,4948
2023-04-03T09:41:06.223Z,4892
2023-04-03T09:42:40.428Z,4768
2023-04-03T09:43:38.613Z,4668
2023-04-03T09:45:12.828Z,4624
2023-04-03T09:46:29.000Z,4588
2023-04-03T09:47:45.198Z,4532
2023-04-03T09:49:01.402Z,4588
2023-04-03T09:50:17.000Z,4636
2023-04-03T09:51:33.783Z,4672
2023-04-03T09:53:14.000Z,4752
2023-04-03T09:53:48.173Z,5680
2023-04-03T09:55:22.000Z,5464
2023-04-03T09:56:38.582Z,5540
2023-04-03T09:57:54.000Z,6852
2023-04-03T09:59:10.000Z,5996
2023-04-03T10:00:27.000Z,5640
2023-04-03T10:01:24.356Z,6752
2023-04-03T10:02:58.552Z,5680
2023-04-03T10:04:14.000Z,5804
2023-04-03T10:05:30.000Z,5996
2023-04-03T10:06:47.155Z,5908
2023-04-03T10:08:03.000Z,5660
2023-04-03T10:09:19.527Z,6164
2023-04-03T10:10:35.000Z,7552
2023-04-03T10:11:51.000Z,6008
2023-04-03T10:13:08.113Z,6444
2023-04-03T10:14:06.308Z,7484
2023-04-03T10:15:22.503Z,6020
2023-04-03T10:16:56.698Z,6344
2023-04-03T10:18:12.000Z,7432
2023-04-03T10:19:29.110Z,7548
2023-04-03T10:20:44.318Z,6328
2023-04-03T10:21:42.495Z,5676
2023-04-03T10:23:16.000Z,7524
2023-04-03T10:24:32.000Z,7880
2023-04-03T10:25:49.000Z,7028
2023-04-03T10:27:29.000Z,7216
2023-04-03T10:28:21.491Z,6048
2023-04-03T10:29:37.000Z,5908
2023-04-03T10:30:53.875Z,8052
2023-04-03T10:31:52.057Z,7340
2023-04-03T10:33:26.270Z,6572
2023-04-03T10:34:42.452Z,6316
2023-04-03T10:35:58.643Z,6284
2023-04-03T10:37:13.867Z,5916
2023-04-03T10:38:30.000Z,6388
2023-04-03T10:39:46.262Z,6064
2023-04-03T10:41:02.000Z,6960
2023-04-03T10:42:18.635Z,6192
2023-04-03T10:43:34.844Z,5908
2023-04-03T10:44:33.025Z,5960
2023-04-03T10:46:07.232Z,6452
2023-04-03T10:47:05.416Z,6172
2023-04-03T10:48:39.000Z,6080
2023-04-03T10:49:55.829Z,6116
2023-04-03T10:51:12.002Z,5836
2023-04-03T10:52:10.197Z,5812
2023-04-03T10:54:08.000Z,5952
2023-04-03T10:55:00.000Z,6272
2023-04-03T10:56:16.000Z,6140
2023-04-03T10:57:33.106Z,6032
2023-04-03T10:59:13.000Z,6076
2023-04-03T10:59:47.490Z,5916
2023-04-03T11:01:21.000Z,5652
2023-04-03T11:02:19.881Z,5628
2023-04-03T11:03:54.077Z,5668
2023-04-03T11:04:52.272Z,5700
2023-04-03T11:06:26.475Z,5588
2023-04-03T11:07:42.000Z,5476
2023-04-03T11:08:58.000Z,5312
2023-04-03T11:09:57.053Z,5136
2023-04-03T11:11:30.000Z,5052
2023-04-03T11:12:28.460Z,4972
2023-04-03T11:14:02.668Z,4780
2023-04-03T11:15:00.850Z,4724
2023-04-03T11:16:17.047Z,4716
2023-04-03T11:17:33.242Z,4776
2023-04-03T11:19:07.000Z,4792
2023-04-03T11:20:23.000Z,4748
2023-04-03T11:21:39.000Z,4736
2023-04-03T11:22:38.025Z,4576
2023-04-03T11:24:12.232Z,4548
2023-04-03T11:25:28.000Z,4484
2023-04-03T11:27:09.000Z,4444
2023-04-03T11:28:00.000Z,4356
2023-04-03T11:29:17.019Z,4288
2023-04-03T11:30:15.199Z,4272
2023-04-03T11:31:48.432Z,4196
2023-04-03T11:33:04.000Z,4216
2023-04-03T11:34:20.000Z,4228
2023-04-03T11:35:18.997Z,4220
2023-04-03T11:37:17.000Z,4192
2023-04-03T11:37:51.388Z,4236
2023-04-03T11:39:25.000Z,4336
2023-04-03T11:40:41.787Z,4540
2023-04-03T11:41:57.000Z,4588
2023-04-03T11:43:14.185Z,4708
2023-04-03T11:44:12.366Z,4804
2023-04-03T11:45:46.000Z,4672
2023-04-03T11:46:44.757Z,4512
2023-04-03T11:48:01.073Z,4512
2023-04-03T11:49:35.269Z,4316
2023-04-03T11:50:51.471Z,4332
2023-04-03T11:52:07.676Z,4416
2023-04-03T11:53:05.854Z,4536
2023-04-03T11:54:40.073Z,4576
2023-04-03T11:55:38.246Z,4496
2023-04-03T11:57:12.000Z,4468
2023-04-03T11:58:28.000Z,4436
2023-04-03T11:59:44.842Z,4416
2023-04-03T12:00:43.026Z,4348
2023-04-03T12:02:17.233Z,4412
2023-04-03T12:03:33.000Z,4188
2023-04-03T12:04:49.614Z,4132
2023-04-03T12:06:05.825Z,4128
2023-04-03T12:07:21.030Z,4152
2023-04-03T12:08:19.216Z,4160
2023-04-03T12:09:53.413Z,4172
2023-04-03T12:11:09.000Z,4176
2023-04-03T12:12:25.000Z,4164
2023-04-03T12:13:23.998Z,4200
2023-04-03T12:14:58.205Z,4332
2023-04-03T12:16:14.396Z,4352
2023-04-03T12:17:12.584Z,4428
2023-04-03T12:18:28.779Z,4496
2023-04-03T12:20:02.982Z,4556
2023-04-03T12:21:19.192Z,4556
2023-04-03T12:22:59.000Z,4552
2023-04-03T12:23:51.559Z,4480
2023-04-03T12:25:07.767Z,4416
2023-04-03T12:26:04.967Z,4364
2023-04-03T12:27:39.000Z,4320
2023-04-03T12:28:55.379Z,4312
2023-04-03T12:30:11.000Z,4312
2023-04-03T12:31:27.000Z,4324
2023-04-03T12:32:43.000Z,4360
2023-04-03T12:33:42.138Z,4412
2023-04-03T12:35:16.000Z,4484
2023-04-03T12:36:32.000Z,4600
2023-04-03T12:37:48.738Z,4720
2023-04-03T12:39:03.949Z,4840
2023-04-03T12:40:20.136Z,5076
2023-04-03T12:41:18.331Z,5060
2023-04-03T12:42:52.553Z,5164
2023-04-03T12:43:50.721Z,5312
2023-04-03T12:45:24.928Z,5512
2023-04-03T12:46:23.111Z,5756
2023-04-03T12:47:57.321Z,5932
2023-04-03T12:49:13.000Z,6976
2023-04-03T12:50:29.698Z,6136
2023-04-03T12:51:27.892Z,5328
2023-04-03T12:53:02.108Z,5104
2023-04-03T12:54:00.283Z,4828
2023-04-03T12:55:33.000Z,4580
2023-04-03T12:56:31.690Z,4480
2023-04-03T12:58:05.000Z,4272
2023-04-03T12:59:22.098Z,4160
2023-04-03T13:01:02.000Z,4044
2023-04-03T13:01:54.000Z,3872
2023-04-03T13:03:10.686Z,3700
2023-04-03T13:04:08.862Z,3540
2023-04-03T13:05:43.000Z,3428
2023-04-03T13:06:59.265Z,3428
2023-04-03T13:08:15.000Z,3356
2023-04-03T13:09:31.000Z,3260
2023-04-03T13:10:47.000Z,3224
2023-04-03T13:12:04.060Z,3156
2023-04-03T13:13:19.000Z,3080
2023-04-03T13:14:35.441Z,3012
2023-04-03T13:15:51.636Z,2976
2023-04-03T13:17:07.838Z,2960
2023-04-03T13:18:24.000Z,2968
2023-04-03T13:19:22.222Z,2980
2023-04-03T13:20:56.419Z,2996
2023-04-03T13:21:54.614Z,3016
2023-04-03T13:23:28.823Z,3072
2023-04-03T13:24:27.005Z,3124
2023-04-03T13:25:43.200Z,3108
2023-04-03T13:27:17.395Z,3116
2023-04-03T13:28:33.000Z,3132
2023-04-03T13:29:31.785Z,3164
2023-04-03T13:31:05.000Z,3220
2023-04-03T13:32:22.186Z,3288
2023-04-03T13:33:37.407Z,3344
2023-04-03T13:34:53.000Z,3412
2023-04-03T13:36:09.000Z,3460
2023-04-03T13:37:07.975Z,3492
2023-04-03T13:38:42.000Z,3488
2023-04-03T13:39:58.000Z,3420
2023-04-03T13:41:39.000Z,3300
2023-04-03T13:42:12.756Z,3184
2023-04-03T13:43:46.000Z,3052
2023-04-03T13:45:03.156Z,2940
2023-04-03T13:46:19.359Z,2840
2023-04-03T13:47:35.000Z,2740
2023-04-03T13:48:51.759Z,2656
2023-04-03T13:50:32.000Z,2604
2023-04-03T13:51:24.123Z,2596
2023-04-03T13:52:40.000Z,2620
2023-04-03T13:53:56.515Z,2672
2023-04-03T13:55:12.710Z,2716
2023-04-03T13:56:28.929Z,2752
2023-04-03T13:57:45.108Z,2832
2023-04-03T13:59:01.000Z,2852
2023-04-03T14:00:17.511Z,2876
2023-04-03T14:01:33.000Z,2892
2023-04-03T14:02:49.000Z,2900
2023-04-03T14:04:06.000Z,2912
2023-04-03T14:05:22.000Z,2940
2023-04-03T14:06:38.000Z,2976
2023-04-03T14:07:54.672Z,3012
2023-04-03T14:09:09.874Z,3056
2023-04-03T14:10:08.069Z,3160
2023-04-03T14:11:24.264Z,3132
2023-04-03T14:12:40.460Z,3180
2023-04-03T14:14:14.000Z,3220
2023-04-03T14:15:12.853Z,3232
2023-04-03T14:16:47.000Z,3244
2023-04-03T14:18:03.000Z,3272
2023-04-03T14:19:19.000Z,3308
2023-04-03T14:20:17.635Z,3356
2023-04-03T14:21:51.830Z,3424
2023-04-03T14:23:08.046Z,3500
2023-04-03T14:24:24.236Z,3576
2023-04-03T14:25:39.457Z,3656
2023-04-03T14:26:55.642Z,3716
2023-04-03T14:28:11.838Z,3676
2023-04-03T14:29:28.000Z,3668
2023-04-03T14:30:44.216Z,3696
2023-04-03T14:32:00.438Z,3668
2023-04-03T14:32:58.607Z,3792
2023-04-03T14:34:32.000Z,4188
2023-04-03T14:35:30.998Z,5012
2023-04-03T14:37:05.000Z,6240
2023-04-03T14:38:03.388Z,5496
2023-04-03T14:39:19.584Z,5508
2023-04-03T14:40:35.779Z,5684
2023-04-03T14:42:09.975Z,5044
2023-04-03T14:43:26.000Z,4808
2023-04-03T14:44:42.000Z,4484
2023-04-03T14:45:58.571Z,4140
2023-04-03T14:47:13.797Z,3860
2023-04-03T14:48:29.979Z,3472
2023-04-03T14:49:46.177Z,3176
2023-04-03T14:51:02.000Z,2940
2023-04-03T14:52:18.000Z,2668
2023-04-03T14:53:16.752Z,2460
2023-04-03T14:54:32.948Z,2252
2023-04-03T14:57:23.351Z,1940
2023-04-03T14:58:21.535Z,1824
2023-04-03T14:59:55.730Z,1728
2023-04-03T15:00:53.925Z,1624
2023-04-03T15:02:28.000Z,1544
2023-04-03T15:03:26.315Z,1476
2023-04-03T15:04:59.000Z,1412
2023-04-03T15:05:57.722Z,1360
2023-04-03T15:07:31.000Z,1292
2023-04-03T15:08:48.000Z,1228
2023-04-03T15:10:28.000Z,1180
2023-04-03T15:11:02.505Z,1140
2023-04-03T15:12:36.000Z,1108
2023-04-03T15:13:34.895Z,1080
2023-04-03T15:15:09.000Z,1052
2023-04-03T15:16:07.286Z,1036
2023-04-03T15:17:23.481Z,1016
2023-04-03T15:18:39.677Z,1008
2023-04-03T15:20:13.882Z,1000
2023-04-03T15:21:30.000Z,980
2023-04-03T15:22:46.263Z,968
2023-04-03T15:23:44.459Z,960
2023-04-03T15:25:18.677Z,948
2023-04-03T15:26:16.850Z,932
2023-04-03T15:27:33.045Z,936
2023-04-03T15:29:06.273Z,944
2023-04-03T15:30:22.452Z,956
2023-04-03T15:31:20.648Z,988
2023-04-03T15:32:54.000Z,1012
2023-04-03T15:34:11.000Z,1032
2023-04-03T15:35:27.260Z,1052
2023-04-03T15:36:25.429Z,1072
2023-04-03T15:37:59.624Z,1084
2023-04-03T15:38:57.819Z,1096
2023-04-03T15:40:32.015Z,1116
2023-04-03T15:41:30.210Z,1128
2023-04-03T15:42:46.405Z,1144
2023-04-03T15:44:20.600Z,1164
2023-04-03T15:45:36.000Z,1180
2023-04-03T15:46:53.000Z,1200
2023-04-03T15:47:51.186Z,1220
2023-04-03T15:49:07.380Z,1244
2023-04-03T15:50:23.577Z,1276
2023-04-03T15:51:39.771Z,1308
2023-04-03T15:53:12.000Z,1348
2023-04-03T15:54:29.190Z,1408
2023-04-03T15:55:27.374Z,1440
2023-04-03T15:56:43.568Z,1488
2023-04-03T15:58:17.787Z,1536
2023-04-03T15:59:33.000Z,1588
2023-04-03T16:00:50.000Z,1648
2023-04-03T16:02:06.363Z,1672
2023-04-03T16:03:47.000Z,1716
2023-04-03T16:04:20.738Z,1776
2023-04-03T16:05:36.933Z,1864
2023-04-03T16:07:11.151Z,1968
2023-04-03T16:08:27.000Z,2076
2023-04-03T16:09:25.518Z,2192
2023-04-03T16:10:41.713Z,2308
2023-04-03T16:12:15.909Z,2440
2023-04-03T16:13:32.114Z,2612
2023-04-03T16:14:30.300Z,2784
2023-04-03T16:16:04.000Z,3012
2023-04-03T16:17:02.690Z,3356
2023-04-03T16:18:35.929Z,5196
2023-04-03T16:19:34.097Z,43520
2023-04-03T16:21:08.305Z,43776
2023-04-03T16:22:24.499Z,44064
2023-04-03T16:23:40.684Z,44448
2023-04-03T16:24:56.000Z,42080
2023-04-03T16:26:13.086Z,43680
2023-04-03T16:27:11.266Z,36736
2023-04-03T16:28:45.479Z,35072
2023-04-03T16:29:43.652Z,18208
2023-04-03T16:31:17.000Z,19168
2023-04-03T16:32:16.038Z,31552
2023-04-03T16:33:50.000Z,33248
2023-04-03T16:34:48.425Z,22432
2023-04-03T16:36:22.630Z,20576
2023-04-03T16:37:38.000Z,10404
2023-04-03T16:38:55.003Z,7016
2023-04-03T16:39:53.196Z,7412
2023-04-03T16:41:27.417Z,3428
2023-04-03T16:42:24.598Z,2428
2023-04-03T16:43:58.804Z,1936
2023-04-03T16:44:56.985Z,1648
2023-04-03T16:46:31.000Z,1392
2023-04-03T16:47:47.380Z,1208
2023-04-03T16:49:03.000Z,1084
2023-04-03T16:50:19.000Z,1052
2023-04-03T16:51:35.977Z,1020
2023-04-03T16:52:34.144Z,952
2023-04-03T16:54:07.000Z,868
2023-04-03T16:55:05.552Z,812
2023-04-03T16:56:21.746Z,776
2023-04-03T16:57:37.939Z,752
2023-04-03T16:59:12.132Z,712
2023-04-03T17:00:10.325Z,648
2023-04-03T17:01:44.518Z,588
2023-04-03T17:03:00.000Z,540
2023-04-03T17:03:58.904Z,508
2023-04-03T17:05:15.098Z,484
2023-04-03T17:06:49.305Z,460
2023-04-03T17:07:47.485Z,448
2023-04-03T17:09:21.000Z,432
2023-04-03T17:10:19.871Z,420
2023-04-03T17:11:54.075Z,400
2023-04-03T17:13:09.272Z,384
2023-04-03T17:14:50.000Z,360
2023-04-03T17:15:41.000Z,324
2023-04-03T17:16:57.000Z,292
2023-04-03T17:18:14.063Z,264
2023-04-03T17:19:12.237Z,240
2023-04-03T17:20:28.431Z,224
2023-04-03T17:22:02.000Z,204
2023-04-03T17:23:00.817Z,188